Time;durP1;ratioP1;P1;durP2;ratioP2;P2;SDS_P1;SDS_P2;PMS_P1;PMS_P2;Temp;Humidity;BMP_temperature;BMP_pressure;BME280_temperature;BME280_humidity;BME280_pressure;Samples;Min_cycle;Max_cycle;Signal;HPM_P1;HPM_P2
2021/03/06 00:01:50;;;;;;;19.17;10.18;;;-0.30;99.90;;;;;;5092325;28;20588;-50
2021/03/06 00:04:16;;;;;;;19.33;9.95;;;-0.30;99.90;;;;;;5089823;28;20024;-50
2021/03/06 00:06:41;;;;;;;15.45;9.88;;;-0.30;99.90;;;;;;5088732;28;20151;-50
2021/03/06 00:09:07;;;;;;;15.65;8.65;;;-0.30;99.90;;;;;;5089948;28;20103;-50
2021/03/06 00:11:32;;;;;;;20.48;9.15;;;-0.30;99.90;;;;;;5085748;28;20105;-49
2021/03/06 00:13:58;;;;;;;20.42;9.57;;;-0.30;99.90;;;;;;5089952;28;20024;-51
2021/03/06 00:16:23;;;;;;;15.38;8.82;;;-0.30;99.90;;;;;;5092201;28;20039;-50
2021/03/06 00:18:49;;;;;;;17.17;8.80;;;-0.20;99.90;;;;;;5086229;28;20056;-50
2021/03/06 00:21:14;;;;;;;16.70;8.75;;;-0.20;99.90;;;;;;5091809;28;20044;-51
2021/03/06 00:23:40;;;;;;;20.30;9.30;;;-0.20;99.90;;;;;;5092435;28;20036;-53
2021/03/06 00:26:05;;;;;;;17.42;8.85;;;-0.30;99.90;;;;;;5089030;28;20028;-54
2021/03/06 00:28:31;;;;;;;29.45;10.02;;;-0.50;99.90;;;;;;5092179;28;20111;-52
2021/03/06 00:30:57;;;;;;;18.35;10.40;;;-0.60;99.90;;;;;;5091661;28;20034;-51
2021/03/06 00:33:23;;;;;;;20.85;10.30;;;-0.70;99.90;;;;;;5086871;28;20028;-53
2021/03/06 00:35:49;;;;;;;20.70;9.57;;;-0.70;99.90;;;;;;5092669;28;20036;-49
2021/03/06 00:38:14;;;;;;;18.15;10.82;;;-0.70;99.90;;;;;;5091634;28;20035;-51
2021/03/06 00:40:40;;;;;;;19.38;10.10;;;-0.70;99.90;;;;;;5091784;28;20032;-51
2021/03/06 00:43:05;;;;;;;18.85;10.00;;;-0.70;99.90;;;;;;5085967;28;20028;-50
2021/03/06 00:45:31;;;;;;;24.10;10.70;;;-0.80;99.90;;;;;;5090142;28;20032;-54
2021/03/06 00:47:56;;;;;;;23.30;10.00;;;-0.80;99.90;;;;;;5091337;28;20403;-53
2021/03/06 00:50:33;;;;;;;19.50;10.05;;;-0.70;99.90;;;;;;5089252;28;20032;-53
2021/03/06 00:52:58;;;;;;;18.95;10.95;;;-0.70;99.90;;;;;;5090072;28;20016;-53
2021/03/06 00:55:24;;;;;;;21.90;10.45;;;-0.60;99.90;;;;;;5091456;28;20032;-49
2021/03/06 00:57:50;;;;;;;16.08;9.25;;;-0.60;99.90;;;;;;5090543;28;20066;-50
2021/03/06 01:00:17;;;;;;;18.38;10.00;;;-0.50;99.90;;;;;;5091655;28;20032;-50
2021/03/06 01:02:43;;;;;;;21.52;11.13;;;-0.50;99.90;;;;;;5091720;28;20035;-53
2021/03/06 01:05:09;;;;;;;22.17;10.82;;;-0.50;99.90;;;;;;5090608;28;20208;-52
2021/03/06 01:07:35;;;;;;;21.83;11.20;;;-0.60;99.90;;;;;;5090018;28;20133;-49
2021/03/06 01:10:05;;;;;;;21.85;11.05;;;-0.60;99.90;;;;;;5092112;28;20074;-49
2021/03/06 01:12:31;;;;;;;23.85;10.48;;;-0.70;99.90;;;;;;5090457;28;20681;-50
2021/03/06 01:14:56;;;;;;;28.85;12.57;;;-0.70;99.90;;;;;;5086840;28;20107;-53
2021/03/06 01:17:22;;;;;;;22.02;11.27;;;-0.80;99.90;;;;;;5091049;28;20031;-50
2021/03/06 01:19:47;;;;;;;21.60;12.10;;;-0.80;99.90;;;;;;5090553;28;20020;-51
2021/03/06 01:22:13;;;;;;;23.85;10.88;;;-0.90;99.90;;;;;;5090389;28;20055;-54
2021/03/06 01:24:38;;;;;;;23.23;12.13;;;-0.90;99.90;;;;;;5086179;28;20110;-49
2021/03/06 01:27:04;;;;;;;21.92;11.98;;;-0.90;99.90;;;;;;5090749;28;20032;-51
2021/03/06 01:29:30;;;;;;;27.73;13.05;;;-0.90;99.90;;;;;;5086049;28;20028;-50
2021/03/06 01:31:55;;;;;;;28.80;12.35;;;-1.00;99.90;;;;;;5089850;28;20024;-53
2021/03/06 01:34:21;;;;;;;24.23;13.60;;;-1.00;99.90;;;;;;5088244;28;20402;-51
2021/03/06 01:36:46;;;;;;;25.75;12.30;;;-1.00;99.90;;;;;;5089938;28;20028;-52
2021/03/06 01:39:12;;;;;;;27.33;12.68;;;-1.10;99.90;;;;;;5090850;28;20059;-50
2021/03/06 01:41:37;;;;;;;26.48;13.35;;;-1.10;99.90;;;;;;5089415;28;20035;-51
2021/03/06 01:44:03;;;;;;;21.88;11.73;;;-1.20;99.90;;;;;;5091640;28;20050;-50
2021/03/06 01:46:29;;;;;;;29.08;12.70;;;-1.20;99.90;;;;;;5088118;28;20071;-52
2021/03/06 01:48:54;;;;;;;25.35;11.70;;;-1.20;99.90;;;;;;5088769;28;20096;-50
2021/03/06 01:51:20;;;;;;;23.85;12.05;;;-1.30;99.90;;;;;;5096708;28;20027;-50
2021/03/06 01:53:45;;;;;;;25.25;13.50;;;-1.20;99.90;;;;;;5090084;28;20062;-50
2021/03/06 01:56:11;;;;;;;25.80;11.75;;;-1.20;99.90;;;;;;5089483;28;20032;-52
2021/03/06 01:58:36;;;;;;;21.60;12.02;;;-1.10;99.90;;;;;;5085619;28;20387;-53
2021/03/06 02:01:02;;;;;;;23.02;12.20;;;-1.10;99.90;;;;;;5081626;28;20035;-54
2021/03/06 02:03:27;;;;;;;29.10;13.27;;;-1.10;99.90;;;;;;5089319;28;20028;-49
2021/03/06 02:05:53;;;;;;;27.70;12.45;;;-1.10;99.90;;;;;;5082199;28;20534;-51
2021/03/06 02:08:19;;;;;;;26.95;12.18;;;-1.10;99.90;;;;;;5088705;28;20024;-53
2021/03/06 02:10:44;;;;;;;25.30;13.00;;;-1.10;99.90;;;;;;5079733;28;20391;-51
2021/03/06 02:13:13;;;;;;;22.02;11.95;;;-1.10;99.90;;;;;;5084867;28;20435;-49
2021/03/06 02:15:47;;;;;;;24.02;11.75;;;-1.20;99.90;;;;;;5087145;28;20547;-51
2021/03/06 02:18:26;;;;;;;26.48;11.63;;;-1.30;99.90;;;;;;5088953;28;20118;-51
2021/03/06 02:21:14;;;;;;;19.98;12.38;;;-1.30;99.90;;;;;;5083105;28;20115;-50
2021/03/06 02:24:25;;;;;;;28.48;13.25;;;-1.30;99.90;;;;;;5088197;28;20035;-51
2021/03/06 02:27:08;;;;;;;29.77;12.98;;;-1.30;99.90;;;;;;5088144;28;20051;-49
2021/03/06 02:29:53;;;;;;;31.88;13.82;;;-1.30;99.90;;;;;;5089791;28;20112;-49
2021/03/06 02:32:23;;;;;;;30.50;13.02;;;-1.30;99.90;;;;;;5088847;28;20286;-53
2021/03/06 02:34:52;;;;;;;25.77;12.90;;;-1.30;99.90;;;;;;5090701;28;20021;-50
2021/03/06 02:37:22;;;;;;;26.08;12.93;;;-1.50;99.90;;;;;;5087387;28;20153;-50
2021/03/06 02:39:51;;;;;;;23.00;12.13;;;-1.50;99.90;;;;;;5084075;28;20024;-51
2021/03/06 02:42:28;;;;;;;34.90;14.95;;;-1.60;99.90;;;;;;5084112;28;20027;-52
2021/03/06 02:44:54;;;;;;;30.83;12.90;;;-1.60;99.90;;;;;;5085293;28;20024;-53
2021/03/06 02:47:20;;;;;;;33.47;13.98;;;-1.60;99.90;;;;;;5076286;28;20063;-51
2021/03/06 02:50:01;;;;;;;28.02;13.15;;;-1.50;99.90;;;;;;5089110;28;20064;-54
2021/03/06 02:52:27;;;;;;;29.65;13.52;;;-1.50;99.90;;;;;;5087048;28;20020;-49
2021/03/06 02:54:53;;;;;;;28.45;12.95;;;-1.50;99.90;;;;;;5090290;28;20388;-51
2021/03/06 02:57:36;;;;;;;26.88;12.73;;;-1.50;99.90;;;;;;5092443;28;20027;-50
2021/03/06 03:00:19;;;;;;;27.77;13.60;;;-1.50;99.90;;;;;;5085640;28;20393;-51
2021/03/06 03:03:18;;;;;;;29.02;14.27;;;-1.50;99.90;;;;;;5086476;28;20055;-51
2021/03/06 03:06:03;;;;;;;35.10;14.25;;;-1.50;99.90;;;;;;5087076;28;20478;-51
2021/03/06 03:08:36;;;;;;;27.30;13.07;;;-1.50;99.90;;;;;;5090934;28;20366;-50
2021/03/06 03:11:07;;;;;;;32.03;14.63;;;-1.60;99.90;;;;;;5094705;28;20480;-54
2021/03/06 03:13:47;;;;;;;26.77;13.60;;;-1.60;99.90;;;;;;5094129;28;20028;-50
2021/03/06 03:16:26;;;;;;;21.65;12.65;;;-1.70;99.90;;;;;;5086691;28;20803;-50
2021/03/06 03:19:14;;;;;;;29.50;13.18;;;-1.70;99.90;;;;;;5092230;28;20048;-51
2021/03/06 03:21:48;;;;;;;28.63;13.32;;;-1.70;99.90;;;;;;5085544;28;20027;-50
2021/03/06 03:24:19;;;;;;;25.17;13.63;;;-1.80;99.90;;;;;;5083553;28;20062;-52
2021/03/06 03:26:47;;;;;;;28.45;14.00;;;-1.80;99.90;;;;;;5086687;28;20039;-49
2021/03/06 03:29:14;;;;;;;27.35;13.70;;;-1.80;99.90;;;;;;5093231;28;20028;-51
2021/03/06 03:31:45;;;;;;;30.17;13.32;;;-1.80;99.90;;;;;;5093355;28;20031;-50
2021/03/06 03:34:11;;;;;;;29.13;14.23;;;-1.90;99.90;;;;;;5089766;28;20103;-52
2021/03/06 03:36:39;;;;;;;23.10;12.88;;;-1.80;99.90;;;;;;5090571;28;20038;-50
2021/03/06 03:39:05;;;;;;;26.23;13.75;;;-1.80;99.90;;;;;;5091875;28;20072;-51
2021/03/06 03:41:32;;;;;;;27.33;13.48;;;-1.90;99.90;;;;;;5092601;28;20024;-53
2021/03/06 03:44:03;;;;;;;32.75;13.90;;;-1.80;99.90;;;;;;5091382;28;20492;-49
2021/03/06 03:46:30;;;;;;;25.83;13.05;;;-1.90;99.90;;;;;;5086281;28;20063;-53
2021/03/06 03:48:57;;;;;;;34.05;13.20;;;-1.90;99.90;;;;;;5090773;28;20040;-49
2021/03/06 03:51:23;;;;;;;30.45;14.25;;;-1.90;99.90;;;;;;5092373;28;20082;-51
2021/03/06 03:53:49;;;;;;;29.90;14.05;;;-1.90;99.90;;;;;;5091335;28;20028;-53
2021/03/06 03:56:16;;;;;;;28.95;13.27;;;-1.90;99.90;;;;;;5092928;28;20020;-49
2021/03/06 03:58:48;;;;;;;34.55;14.57;;;-1.90;99.90;;;;;;5092357;28;20078;-50
2021/03/06 04:01:13;;;;;;;30.08;14.30;;;-1.90;99.90;;;;;;5093439;28;20047;-51
2021/03/06 04:03:39;;;;;;;31.75;16.33;;;-1.90;99.90;;;;;;5088051;28;20107;-50
2021/03/06 04:06:06;;;;;;;30.52;14.15;;;-1.90;99.90;;;;;;5090471;28;20058;-51
2021/03/06 04:08:32;;;;;;;27.42;14.00;;;-1.90;99.90;;;;;;5069989;28;20036;-49
2021/03/06 04:10:57;;;;;;;26.23;13.95;;;-1.90;99.90;;;;;;5093769;28;20441;-52
2021/03/06 04:13:23;;;;;;;28.13;15.23;;;-2.00;99.90;;;;;;5090900;28;20032;-53
2021/03/06 04:15:49;;;;;;;29.40;14.70;;;-2.00;99.90;;;;;;5089380;28;20036;-52
2021/03/06 04:18:14;;;;;;;30.15;13.20;;;-2.00;99.90;;;;;;5086104;28;20493;-50
2021/03/06 04:20:40;;;;;;;23.05;13.25;;;-2.00;99.90;;;;;;5091092;28;20031;-49
2021/03/06 04:23:05;;;;;;;26.65;14.30;;;-2.10;99.90;;;;;;5091061;28;20043;-50
2021/03/06 04:25:31;;;;;;;28.27;13.90;;;-2.10;99.90;;;;;;5087550;28;20036;-49
2021/03/06 04:27:57;;;;;;;27.48;13.73;;;-2.10;99.90;;;;;;5089424;28;20016;-49
2021/03/06 04:30:23;;;;;;;27.80;14.23;;;-2.10;99.90;;;;;;5089061;28;20051;-49
2021/03/06 04:32:49;;;;;;;27.35;13.20;;;-2.10;99.90;;;;;;5084851;28;20404;-52
2021/03/06 04:35:15;;;;;;;27.40;13.38;;;-2.10;99.90;;;;;;5085386;28;20016;-49
2021/03/06 04:37:41;;;;;;;32.92;14.00;;;-2.10;99.90;;;;;;5084532;28;20047;-52
2021/03/06 04:40:12;;;;;;;30.42;14.98;;;-2.20;99.90;;;;;;5092283;28;20040;-49
2021/03/06 04:42:38;;;;;;;29.92;15.13;;;-2.20;99.90;;;;;;5091747;28;20020;-51
2021/03/06 04:45:05;;;;;;;27.08;14.40;;;-2.20;99.90;;;;;;5088324;28;20396;-49
2021/03/06 04:47:31;;;;;;;36.80;15.15;;;-2.20;99.90;;;;;;5084660;28;20036;-50
2021/03/06 04:49:56;;;;;;;29.67;15.00;;;-2.20;99.90;;;;;;5084617;28;20035;-51
2021/03/06 04:52:22;;;;;;;29.02;14.05;;;-2.10;99.90;;;;;;5088699;28;20020;-50
2021/03/06 04:54:48;;;;;;;31.67;15.32;;;-2.10;99.90;;;;;;5093388;28;20028;-49
2021/03/06 04:57:13;;;;;;;28.08;13.95;;;-2.10;99.90;;;;;;5092388;28;20063;-48
2021/03/06 04:59:40;;;;;;;27.98;14.57;;;-2.10;99.90;;;;;;5086056;28;20028;-51
2021/03/06 05:02:06;;;;;;;25.90;14.07;;;-2.20;99.90;;;;;;5086824;28;20028;-49
2021/03/06 05:04:32;;;;;;;34.55;15.35;;;-2.20;99.90;;;;;;5084636;28;20042;-50
2021/03/06 05:06:58;;;;;;;32.28;15.32;;;-2.30;99.90;;;;;;5084686;28;20119;-49
2021/03/06 05:09:23;;;;;;;28.48;15.15;;;-2.30;99.90;;;;;;5086585;28;20557;-49
2021/03/06 05:11:49;;;;;;;27.77;14.27;;;-2.30;99.90;;;;;;5091308;28;20030;-51
2021/03/06 05:14:15;;;;;;;30.25;14.77;;;-2.40;99.90;;;;;;5087566;28;20415;-50
2021/03/06 05:16:41;;;;;;;28.52;14.85;;;-2.40;99.90;;;;;;5081441;28;20028;-50
2021/03/06 05:19:06;;;;;;;28.50;13.32;;;-2.40;99.90;;;;;;5084266;28;20107;-49
2021/03/06 05:21:32;;;;;;;26.40;13.73;;;-2.40;99.90;;;;;;5086302;28;20309;-52
2021/03/06 05:23:57;;;;;;;24.80;13.95;;;-2.40;99.90;;;;;;5088922;28;20024;-50
2021/03/06 05:26:23;;;;;;;25.73;15.25;;;-2.30;99.90;;;;;;5089403;28;20441;-49
2021/03/06 05:28:49;;;;;;;27.20;14.38;;;-2.40;99.90;;;;;;5088884;28;20024;-50
2021/03/06 05:31:14;;;;;;;32.80;14.27;;;-2.40;99.90;;;;;;5087350;28;20028;-51
2021/03/06 05:33:40;;;;;;;24.90;14.10;;;-2.40;99.90;;;;;;5088175;28;20116;-51
2021/03/06 05:36:06;;;;;;;28.92;14.40;;;-2.50;99.90;;;;;;5090131;28;20044;-51
2021/03/06 05:38:31;;;;;;;29.92;15.70;;;-2.40;99.90;;;;;;5086665;28;20032;-52
2021/03/06 05:40:57;;;;;;;31.20;15.27;;;-2.50;99.90;;;;;;5090428;28;20393;-49
2021/03/06 05:43:23;;;;;;;26.90;14.30;;;-2.50;99.90;;;;;;5086770;28;20146;-49
2021/03/06 05:45:49;;;;;;;29.10;15.40;;;-2.50;99.90;;;;;;5084274;28;20625;-49
2021/03/06 05:48:18;;;;;;;27.88;14.15;;;-2.50;99.90;;;;;;5080947;28;20028;-51
2021/03/06 05:50:45;;;;;;;31.80;14.73;;;-2.50;99.90;;;;;;5083786;28;20479;-49
2021/03/06 05:53:13;;;;;;;32.30;15.30;;;-2.50;99.90;;;;;;5088939;28;20061;-50
2021/03/06 05:55:41;;;;;;;28.77;15.23;;;-2.50;99.90;;;;;;5090834;28;20038;-50
2021/03/06 05:58:08;;;;;;;23.75;13.73;;;-2.40;99.90;;;;;;5082924;28;20032;-51
2021/03/06 06:00:34;;;;;;;35.55;15.35;;;-2.40;99.90;;;;;;5086482;28;20031;-49
2021/03/06 06:03:00;;;;;;;28.83;14.38;;;-2.30;99.90;;;;;;5084201;28;20488;-49
2021/03/06 06:05:26;;;;;;;31.15;14.23;;;-2.40;99.90;;;;;;5083496;28;20051;-49
2021/03/06 06:07:56;;;;;;;29.40;15.20;;;-2.40;99.90;;;;;;5086521;28;20033;-49
2021/03/06 06:10:23;;;;;;;30.85;15.02;;;-2.40;99.90;;;;;;5090921;28;20031;-49
2021/03/06 06:12:49;;;;;;;29.45;15.30;;;-2.40;99.90;;;;;;5085633;28;20066;-49
2021/03/06 06:15:15;;;;;;;27.20;13.65;;;-2.40;99.90;;;;;;5090501;28;20496;-49
2021/03/06 06:17:41;;;;;;;30.67;14.75;;;-2.40;99.90;;;;;;5086884;28;20063;-49
2021/03/06 06:20:07;;;;;;;31.65;13.48;;;-2.40;99.90;;;;;;5090503;28;20047;-51
2021/03/06 06:22:33;;;;;;;29.40;14.32;;;-2.40;99.90;;;;;;5089823;28;20028;-49
2021/03/06 06:24:59;;;;;;;25.75;14.50;;;-2.50;99.90;;;;;;5084613;28;20028;-49
2021/03/06 06:27:32;;;;;;;34.15;14.63;;;-2.50;99.90;;;;;;5090332;28;20042;-49
2021/03/06 06:30:00;;;;;;;31.10;14.05;;;-2.60;99.90;;;;;;5089134;28;20031;-49
2021/03/06 06:32:39;;;;;;;31.25;14.77;;;-2.60;99.90;;;;;;5082241;28;20105;-52
2021/03/06 06:35:12;;;;;;;27.45;14.15;;;-2.60;99.90;;;;;;5082811;28;20056;-49
2021/03/06 06:37:38;;;;;;;25.47;13.70;;;-2.60;99.90;;;;;;5086166;28;20024;-53
2021/03/06 06:40:22;;;;;;;32.03;14.60;;;-2.60;99.90;;;;;;5098608;28;20020;-53
2021/03/06 06:42:48;;;;;;;28.42;14.15;;;-2.60;99.90;;;;;;5093461;28;20037;-49
2021/03/06 06:45:16;;;;;;;32.13;15.73;;;-2.60;99.90;;;;;;5089590;28;20108;-49
2021/03/06 06:47:43;;;;;;;29.63;14.80;;;-2.50;99.90;;;;;;5085909;28;20466;-49
2021/03/06 06:50:11;;;;;;;25.63;15.18;;;-2.40;99.90;;;;;;5090205;28;20444;-49
2021/03/06 06:52:41;;;;;;;33.40;14.93;;;-2.40;99.90;;;;;;5085225;28;20488;-51
2021/03/06 06:55:10;;;;;;;26.88;14.52;;;-2.30;99.90;;;;;;5082251;28;20020;-49
2021/03/06 06:57:46;;;;;;;30.40;14.63;;;-2.20;99.90;;;;;;5083758;28;20024;-53
2021/03/06 07:00:13;;;;;;;25.67;14.18;;;-2.10;99.90;;;;;;5090570;28;20028;-49
2021/03/06 07:02:54;;;;;;;29.77;15.05;;;-2.10;99.90;;;;;;5084354;28;20028;-50
2021/03/06 07:05:29;;;;;;;29.05;14.38;;;-2.00;99.90;;;;;;5081945;28;20392;-50
2021/03/06 07:07:54;;;;;;;;;;;-1.90;99.90;;;;;;5082698;28;20077;-51
2021/03/06 07:10:21;;;;;;;25.33;13.52;;;-1.90;99.90;;;;;;5084097;28;19911;-49
2021/03/06 07:13:00;;;;;;;31.98;15.25;;;-1.90;99.90;;;;;;5090796;28;20039;-51
2021/03/06 07:15:27;;;;;;;24.95;14.90;;;-1.80;99.90;;;;;;5085058;28;20039;-52
2021/03/06 07:17:54;;;;;;;30.05;14.98;;;-1.70;99.90;;;;;;5081926;28;20480;-50
2021/03/06 07:20:23;;;;;;;29.25;14.07;;;-1.60;99.90;;;;;;5082862;28;20527;-53
2021/03/06 07:22:50;;;;;;;25.42;14.45;;;-1.60;99.90;;;;;;5086263;28;20055;-55
2021/03/06 07:25:16;;;;;;;26.52;14.27;;;-1.40;99.90;;;;;;5089384;28;20344;-50
2021/03/06 07:27:42;;;;;;;26.23;14.43;;;-1.40;99.90;;;;;;5089646;28;20035;-53
2021/03/06 07:30:10;;;;;;;25.23;14.43;;;-1.30;99.90;;;;;;5090157;28;20396;-49
2021/03/06 07:32:40;;;;;;;26.52;14.52;;;-1.20;99.90;;;;;;5085945;28;20509;-49
2021/03/06 07:35:08;;;;;;;26.05;12.90;;;-1.10;99.90;;;;;;5089588;28;20119;-51
2021/03/06 07:37:35;;;;;;;28.10;13.75;;;-1.00;99.90;;;;;;5091226;28;20039;-50
2021/03/06 07:40:03;;;;;;;25.02;14.23;;;-0.90;99.90;;;;;;5092347;28;20031;-49
2021/03/06 07:42:48;;;;;;;23.70;12.80;;;-0.80;99.90;;;;;;5093269;28;20055;-49
2021/03/06 07:45:18;;;;;;;24.38;13.07;;;-0.70;99.90;;;;;;5088713;28;20040;-50
2021/03/06 07:47:45;;;;;;;18.50;11.68;;;-0.70;99.90;;;;;;5088870;28;20028;-50
2021/03/06 07:50:17;;;;;;;26.08;13.20;;;-0.60;99.90;;;;;;5092878;28;20036;-48
2021/03/06 07:52:44;;;;;;;23.33;12.18;;;-0.50;99.90;;;;;;5091278;28;20504;-50
2021/03/06 07:55:11;;;;;;;23.88;12.57;;;-0.40;99.90;;;;;;5091544;28;20051;-52
2021/03/06 07:58:02;;;;;;;19.58;10.57;;;-0.40;99.90;;;;;;5091211;28;20023;-53
2021/03/06 08:00:40;;;;;;;20.25;10.88;;;-0.30;99.90;;;;;;5086668;28;20411;-49
2021/03/06 08:03:27;;;;;;;22.02;10.77;;;-0.20;99.90;;;;;;5092802;28;20032;-48
2021/03/06 08:06:02;;;;;;;20.70;10.95;;;-0.10;99.90;;;;;;5092038;28;20024;-51
2021/03/06 08:08:51;;;;;;;18.73;10.10;;;0.00;99.90;;;;;;5089555;28;20032;-54
2021/03/06 08:11:21;;;;;;;24.75;10.65;;;0.10;99.90;;;;;;5092636;28;20084;-51
2021/03/06 08:13:59;;;;;;;18.00;10.20;;;0.10;99.90;;;;;;5086298;28;20425;-48
2021/03/06 08:16:27;;;;;;;19.95;10.65;;;0.20;99.90;;;;;;5087368;28;20035;-49
2021/03/06 08:18:57;;;;;;;18.95;9.27;;;0.30;99.90;;;;;;5090100;28;20044;-50
2021/03/06 08:21:37;;;;;;;19.35;10.55;;;0.30;99.90;;;;;;5094049;28;20090;-49
2021/03/06 08:24:12;;;;;;;26.15;10.52;;;0.40;99.90;;;;;;5089190;28;20027;-50
2021/03/06 08:26:40;;;;;;;20.20;10.05;;;0.50;99.90;;;;;;5091241;28;20023;-52
2021/03/06 08:29:25;;;;;;;21.52;10.18;;;0.60;99.90;;;;;;5089143;28;20038;-52
2021/03/06 08:32:07;;;;;;;;;;;0.70;99.90;;;;;;5089181;28;20023;-54
2021/03/06 08:34:39;;;;;;;18.00;8.52;;;0.80;99.90;;;;;;5090980;28;19908;-54
2021/03/06 08:37:17;;;;;;;17.65;9.00;;;0.90;99.90;;;;;;5088865;28;20028;-55
2021/03/06 08:40:03;;;;;;;14.45;8.32;;;0.90;99.90;;;;;;5090662;28;20024;-54
2021/03/06 08:42:33;;;;;;;15.48;8.57;;;1.00;99.90;;;;;;5090015;28;20032;-53
2021/03/06 08:45:01;;;;;;;12.80;8.02;;;1.10;99.90;;;;;;5090678;28;20032;-56
2021/03/06 08:47:32;;;;;;;14.27;8.95;;;1.20;99.90;;;;;;5085581;28;20028;-55
2021/03/06 08:50:00;;;;;;;23.60;10.70;;;1.30;99.90;;;;;;5091028;28;20471;-56
2021/03/06 08:52:28;;;;;;;19.75;9.07;;;1.40;99.90;;;;;;5086002;28;20107;-56
2021/03/06 08:54:54;;;;;;;22.70;9.23;;;1.50;99.90;;;;;;5090294;28;20031;-55
2021/03/06 08:57:33;;;;;;;14.02;8.82;;;1.60;99.90;;;;;;5088950;28;20054;-55
2021/03/06 09:00:00;;;;;;;16.55;8.65;;;1.70;99.90;;;;;;5086451;28;20120;-54
2021/03/06 09:02:31;;;;;;;18.00;8.15;;;1.80;99.90;;;;;;5088647;28;20056;-52
2021/03/06 09:05:02;;;;;;;14.38;8.10;;;1.90;99.90;;;;;;5088219;28;20540;-52
2021/03/06 09:07:30;;;;;;;12.20;8.32;;;2.00;99.90;;;;;;5090044;28;20336;-54
2021/03/06 09:10:15;;;;;;;15.43;7.80;;;2.20;99.90;;;;;;5088767;28;20422;-53
2021/03/06 09:12:41;;;;;;;20.02;9.18;;;2.30;99.90;;;;;;5087690;28;20396;-55
2021/03/06 09:15:09;;;;;;;16.73;7.45;;;2.40;99.90;;;;;;5088056;28;20119;-55
2021/03/06 09:17:35;;;;;;;16.42;7.97;;;2.50;99.90;;;;;;5091255;28;20028;-56
2021/03/06 09:20:06;;;;;;;16.98;9.25;;;2.60;99.90;;;;;;5084103;28;20043;-55
2021/03/06 09:22:42;;;;;;;18.90;8.00;;;2.70;99.90;;;;;;5091481;28;20032;-57
2021/03/06 09:25:08;;;;;;;19.17;8.73;;;2.80;99.90;;;;;;5090177;28;20024;-56
2021/03/06 09:27:47;;;;;;;17.60;10.10;;;2.90;99.90;;;;;;5090732;28;20028;-57
2021/03/06 09:30:19;;;;;;;23.65;8.70;;;3.00;99.90;;;;;;5094765;28;20081;-55
2021/03/06 09:32:45;;;;;;;13.57;7.45;;;3.20;99.90;;;;;;5092908;28;20027;-50
2021/03/06 09:35:13;;;;;;;13.80;8.27;;;3.30;99.90;;;;;;5089856;28;20032;-56
2021/03/06 09:37:38;;;;;;;14.88;8.25;;;3.50;99.90;;;;;;5092748;28;20476;-53
2021/03/06 09:40:23;;;;;;;13.07;7.75;;;3.60;99.90;;;;;;5074488;28;20035;-53
2021/03/06 09:42:50;;;;;;;13.85;7.65;;;3.80;99.90;;;;;;5074216;28;20644;-52
2021/03/06 09:45:16;;;;;;;15.00;7.53;;;4.00;99.90;;;;;;5076753;28;20086;-55
2021/03/06 09:47:42;;;;;;;12.73;6.53;;;4.00;99.90;;;;;;5082859;28;20435;-56
2021/03/06 09:50:09;;;;;;;13.45;7.32;;;4.10;99.90;;;;;;5086699;28;20032;-56
2021/03/06 09:52:34;;;;;;;13.80;7.60;;;4.30;99.90;;;;;;5089650;28;20046;-53
2021/03/06 09:55:01;;;;;;;14.75;6.65;;;4.50;99.90;;;;;;5079931;28;20654;-53
2021/03/06 09:57:27;;;;;;;13.60;6.50;;;4.70;99.90;;;;;;5086263;28;20028;-54
2021/03/06 09:59:52;;;;;;;10.57;6.45;;;4.80;99.90;;;;;;5082706;28;20035;-56
2021/03/06 10:02:23;;;;;;;9.85;6.00;;;4.80;99.90;;;;;;5086771;28;20024;-56
2021/03/06 10:04:49;;;;;;;8.73;5.25;;;4.90;99.90;;;;;;5087409;28;20032;-56
2021/03/06 10:07:17;;;;;;;10.38;5.72;;;5.00;99.90;;;;;;5087241;28;20118;-54
2021/03/06 10:09:43;;;;;;;9.05;5.40;;;5.30;99.90;;;;;;5089948;28;20095;-56
2021/03/06 10:12:13;;;;;;;9.38;4.82;;;5.50;99.90;;;;;;5088373;28;20092;-56
2021/03/06 10:14:39;;;;;;;9.05;5.30;;;5.70;99.90;;;;;;5090770;28;20028;-57
2021/03/06 10:17:07;;;;;;;11.63;5.72;;;5.70;99.90;;;;;;5089312;28;20024;-56
2021/03/06 10:19:48;;;;;;;9.48;5.65;;;5.70;99.90;;;;;;5089472;28;20488;-55
2021/03/06 10:22:14;;;;;;;10.57;5.63;;;5.80;99.90;;;;;;5088387;28;20036;-55
2021/03/06 10:25:02;;;;;;;12.13;6.15;;;5.80;99.90;;;;;;5090737;28;20091;-56
2021/03/06 10:27:46;;;;;;;15.52;6.53;;;5.90;99.90;;;;;;5088318;28;20042;-55
2021/03/06 10:30:18;;;;;;;7.88;5.40;;;5.90;99.90;;;;;;5082587;28;20028;-52
2021/03/06 10:32:55;;;;;;;9.15;5.45;;;6.00;99.90;;;;;;5086921;28;20116;-54
2021/03/06 10:35:46;;;;;;;10.02;5.70;;;6.10;99.90;;;;;;5086199;28;20115;-58
2021/03/06 10:38:20;;;;;;;8.77;5.43;;;6.40;99.90;;;;;;5086766;28;20111;-53
2021/03/06 10:40:47;;;;;;;8.93;3.97;;;6.40;99.90;;;;;;5089467;28;20016;-57
2021/03/06 10:43:38;;;;;;;8.88;4.25;;;6.60;99.90;;;;;;5092042;28;20423;-53
2021/03/06 10:46:20;;;;;;;10.15;4.70;;;6.70;99.90;;;;;;5086201;28;20069;-50
2021/03/06 10:49:07;;;;;;;7.82;4.15;;;6.80;99.90;;;;;;5088955;28;20104;-52
2021/03/06 10:51:52;;;;;;;10.90;3.90;;;6.70;99.90;;;;;;5088858;28;20035;-55
2021/03/06 10:54:20;;;;;;;6.65;4.30;;;6.90;99.90;;;;;;5089333;28;20519;-56
2021/03/06 10:56:46;;;;;;;7.13;3.53;;;6.90;99.90;;;;;;5090992;28;20460;-55
2021/03/06 10:59:12;;;;;;;6.82;3.72;;;7.00;99.90;;;;;;5084047;28;20063;-55
2021/03/06 11:01:45;;;;;;;7.57;4.35;;;7.10;99.90;;;;;;5089813;28;20392;-54
2021/03/06 11:04:30;;;;;;;6.70;3.93;;;7.20;99.90;;;;;;5088974;28;20036;-54
2021/03/06 11:06:57;;;;;;;10.45;4.57;;;7.40;99.90;;;;;;5091089;28;20024;-54
2021/03/06 11:09:27;;;;;;;7.18;3.78;;;7.50;99.90;;;;;;5085924;28;20048;-55
2021/03/06 11:11:54;;;;;;;5.60;3.17;;;7.70;99.90;;;;;;5091749;28;20111;-54
2021/03/06 11:14:24;;;;;;;8.57;3.47;;;7.60;99.90;;;;;;5085991;28;20294;-54
2021/03/06 11:16:50;;;;;;;5.30;3.38;;;7.70;99.90;;;;;;5093195;28;20028;-54
2021/03/06 11:19:15;;;;;;;10.43;3.22;;;7.70;99.90;;;;;;5092203;28;20024;-55
2021/03/06 11:21:41;;;;;;;4.65;3.40;;;7.70;99.90;;;;;;5090574;28;20097;-55
2021/03/06 11:24:09;;;;;;;9.45;4.32;;;8.00;99.90;;;;;;5087663;28;20429;-55
2021/03/06 11:26:36;;;;;;;7.72;4.13;;;8.20;99.90;;;;;;5092273;28;20047;-55
2021/03/06 11:29:03;;;;;;;7.00;4.53;;;8.20;99.90;;;;;;5093419;28;20020;-53
2021/03/06 11:31:29;;;;;;;8.63;4.07;;;8.30;99.90;;;;;;5093995;28;20115;-56
2021/03/06 11:33:54;;;;;;;7.18;4.05;;;8.20;99.90;;;;;;5097158;28;20094;-54
2021/03/06 11:36:22;;;;;;;5.25;3.70;;;8.40;99.90;;;;;;5090089;28;20032;-54
2021/03/06 11:38:48;;;;;;;7.15;4.07;;;8.50;99.90;;;;;;5092620;28;20024;-54
2021/03/06 11:41:14;;;;;;;8.45;4.20;;;8.50;99.90;;;;;;5093873;28;20499;-57
2021/03/06 11:43:40;;;;;;;6.20;4.03;;;8.70;99.90;;;;;;5093026;28;20050;-55
2021/03/06 11:46:05;;;;;;;5.95;3.88;;;8.90;99.90;;;;;;5093422;28;20028;-55
2021/03/06 11:48:31;;;;;;;11.10;4.53;;;8.70;99.90;;;;;;5093907;28;20077;-55
2021/03/06 11:50:56;;;;;;;7.35;4.18;;;8.80;99.90;;;;;;5095479;28;20024;-53
2021/03/06 11:53:22;;;;;;;10.35;4.03;;;8.80;99.90;;;;;;5090671;28;20039;-52
2021/03/06 11:55:47;;;;;;;8.20;4.35;;;8.70;99.90;;;;;;5091520;28;20051;-51
2021/03/06 11:58:15;;;;;;;6.07;4.10;;;8.90;99.90;;;;;;5089984;28;20133;-56
2021/03/06 12:00:40;;;;;;;7.75;3.70;;;9.00;99.90;;;;;;5090449;28;20032;-54
2021/03/06 12:03:06;;;;;;;7.93;3.88;;;9.10;99.90;;;;;;5088964;28;20027;-55
2021/03/06 12:05:32;;;;;;;9.88;4.53;;;9.20;99.90;;;;;;5092231;28;20024;-55
2021/03/06 12:07:58;;;;;;;7.85;4.65;;;9.40;99.20;;;;;;5091100;28;21544;-55
2021/03/06 12:10:28;;;;;;;7.93;4.13;;;9.40;99.90;;;;;;5088998;28;20085;-55
2021/03/06 12:12:54;;;;;;;6.47;4.28;;;9.60;99.90;;;;;;5089422;28;20510;-53
2021/03/06 12:15:20;;;;;;;8.63;4.40;;;9.70;99.60;;;;;;5092455;28;20065;-57
2021/03/06 12:17:47;;;;;;;8.85;4.18;;;9.50;99.10;;;;;;5087652;28;20043;-55
2021/03/06 12:20:14;;;;;;;7.03;4.32;;;9.70;99.40;;;;;;5090732;28;20031;-57
2021/03/06 12:22:40;;;;;;;7.40;4.68;;;9.80;99.90;;;;;;5088184;28;20036;-57
2021/03/06 12:25:06;;;;;;;8.00;4.20;;;10.10;99.90;;;;;;5091566;28;20103;-57
2021/03/06 12:27:33;;;;;;;8.43;4.95;;;10.00;95.40;;;;;;5091060;28;20036;-55
2021/03/06 12:29:58;;;;;;;5.97;4.05;;;9.80;96.70;;;;;;5090282;28;20028;-53
2021/03/06 12:32:24;;;;;;;7.25;4.50;;;9.80;96.60;;;;;;5091797;28;20028;-55
2021/03/06 12:34:50;;;;;;;11.20;5.82;;;9.90;95.50;;;;;;5092694;28;20032;-54
2021/03/06 12:37:16;;;;;;;7.65;4.50;;;9.60;95.60;;;;;;5090097;28;20043;-53
2021/03/06 12:39:42;;;;;;;6.28;4.07;;;9.60;95.80;;;;;;5090878;28;20031;-54
2021/03/06 12:42:08;;;;;;;7.28;3.97;;;9.90;97.60;;;;;;5085902;28;20111;-56
2021/03/06 12:44:34;;;;;;;6.63;4.07;;;10.10;96.10;;;;;;5101214;28;20035;-56
2021/03/06 12:47:00;;;;;;;7.55;5.03;;;10.20;94.60;;;;;;5091649;28;20078;-53